Time;durP1;ratioP1;P1;durP2;ratioP2;P2;SDS_P1;SDS_P2;PMS_P1;PMS_P2;Temp;Humidity;BMP_temperature;BMP_pressure;BME280_temperature;BME280_humidity;BME280_pressure;Samples;Min_cycle;Max_cycle;Signal;HPM_P1;HPM_P2
2021/03/04 00:00:17;;;;;;;109.30;40.15;;;;;;;1.25;98.80;101769.88;5154748;27;20520;-52
2021/03/04 00:02:44;;;;;;;113.47;43.57;;;;;;;1.28;98.72;101772.72;5147311;27;20321;-52
2021/03/04 00:05:16;;;;;;;115.28;41.33;;;;;;;1.15;98.35;101769.00;5134695;27;20523;-51
2021/03/04 00:07:43;;;;;;;104.73;41.53;;;;;;;1.10;98.69;101779.47;5136360;27;20249;-49
2021/03/04 00:10:12;;;;;;;105.93;36.53;;;;;;;1.10;98.72;101776.94;5136704;27;20446;-47
2021/03/04 00:12:39;;;;;;;91.93;35.40;;;;;;;1.00;98.63;101775.13;5136342;27;20496;-49
2021/03/04 00:15:08;;;;;;;81.70;31.85;;;;;;;0.90;98.49;101769.19;5136325;27;20636;-52
2021/03/04 00:17:43;;;;;;;111.18;38.10;;;;;;;0.98;99.05;101775.03;5136713;27;20237;-52
2021/03/04 00:20:12;;;;;;;90.88;38.42;;;;;;;0.90;98.71;101774.25;5136624;27;20201;-51
2021/03/04 00:22:40;;;;;;;104.25;39.47;;;;;;;0.80;98.69;101769.03;5135185;27;20320;-49
2021/03/04 00:25:09;;;;;;;102.85;38.22;;;;;;;0.84;98.39;101765.13;5135249;27;20209;-49
2021/03/04 00:27:35;;;;;;;81.18;31.58;;;;;;;0.65;98.82;101779.50;5137687;27;20222;-48
2021/03/04 00:30:03;;;;;;;85.68;32.45;;;;;;;0.64;98.76;101775.16;5138798;27;20208;-51
2021/03/04 00:32:30;;;;;;;101.68;38.20;;;;;;;0.69;98.64;101779.78;5135652;27;20229;-48
2021/03/04 00:34:57;;;;;;;87.22;35.63;;;;;;;0.60;98.79;101778.13;5137619;27;20218;-52
2021/03/04 00:37:24;;;;;;;94.13;29.38;;;;;;;0.56;98.66;101770.94;5134873;27;20225;-52
2021/03/04 00:39:52;;;;;;;75.63;31.40;;;;;;;0.67;99.10;101760.19;5136198;27;20222;-54
2021/03/04 00:42:19;;;;;;;70.45;30.05;;;;;;;0.72;99.18;101757.22;5135356;27;20251;-48
2021/03/04 00:44:45;;;;;;;82.40;30.00;;;;;;;0.67;99.05;101757.66;5139510;27;20233;-50
2021/03/04 00:47:12;;;;;;;67.50;30.60;;;;;;;0.48;98.58;101762.59;5134994;27;20494;-51
2021/03/04 00:49:40;;;;;;;79.35;31.20;;;;;;;0.58;98.87;101768.56;5133526;28;20322;-49
2021/03/04 00:52:07;;;;;;;69.38;27.95;;;;;;;0.53;98.52;101761.38;5134840;28;20206;-52
2021/03/04 00:54:37;;;;;;;80.80;29.02;;;;;;;0.50;98.57;101770.34;5133287;28;20261;-48
2021/03/04 00:57:05;;;;;;;56.45;23.27;;;;;;;0.49;98.71;101769.47;5134803;28;20216;-51
2021/03/04 00:59:31;;;;;;;58.13;24.55;;;;;;;0.40;98.71;101764.38;5133633;28;20245;-49
2021/03/04 01:01:58;;;;;;;54.58;22.25;;;;;;;0.40;98.71;101753.31;5135040;28;20195;-51
2021/03/04 01:04:25;;;;;;;48.65;18.85;;;;;;;0.42;98.64;101761.09;5133069;28;20266;-47
2021/03/04 01:06:52;;;;;;;46.85;21.42;;;;;;;0.38;98.73;101760.78;5134776;28;21050;-49
2021/03/04 01:09:18;;;;;;;36.40;14.15;;;;;;;0.46;98.90;101753.91;5133494;28;20707;-52
2021/03/04 01:11:45;;;;;;;34.38;15.63;;;;;;;0.37;98.64;101750.47;5134908;28;20600;-53
2021/03/04 01:14:12;;;;;;;22.75;9.35;;;;;;;0.25;98.79;101753.59;5132988;28;20542;-49
2021/03/04 01:16:39;;;;;;;21.98;8.45;;;;;;;0.23;98.98;101746.56;5135052;28;20203;-50
2021/03/04 01:19:06;;;;;;;23.38;11.18;;;;;;;0.25;98.83;101748.50;5133477;28;20238;-51
2021/03/04 01:21:32;;;;;;;25.17;10.68;;;;;;;0.38;98.85;101735.41;5135233;28;20234;-52
2021/03/04 01:24:05;;;;;;;25.25;12.07;;;;;;;0.45;98.83;101726.72;5133116;28;20230;-52
2021/03/04 01:26:32;;;;;;;30.98;12.40;;;;;;;0.38;98.83;101737.03;5136645;27;20727;-51
2021/03/04 01:28:58;;;;;;;27.58;11.15;;;;;;;0.44;98.52;101731.66;5137531;27;20575;-51
2021/03/04 01:31:26;;;;;;;27.55;11.23;;;;;;;0.43;98.72;101727.31;5138708;27;20290;-53
2021/03/04 01:33:53;;;;;;;26.45;11.90;;;;;;;0.48;98.58;101721.06;5137208;27;20238;-55
2021/03/04 01:36:19;;;;;;;30.95;12.30;;;;;;;0.46;98.35;101718.34;5138245;27;20194;-48
2021/03/04 01:38:46;;;;;;;25.35;11.68;;;;;;;0.57;98.42;101711.81;5137000;27;20230;-48
2021/03/04 01:41:12;;;;;;;24.33;11.20;;;;;;;0.58;98.37;101707.59;5138233;27;20207;-51
2021/03/04 01:43:39;;;;;;;24.55;10.82;;;;;;;0.47;98.20;101707.44;5137296;27;20242;-49
2021/03/04 01:46:06;;;;;;;22.80;9.73;;;;;;;0.47;98.08;101702.38;5138026;27;20212;-52
2021/03/04 01:48:49;;;;;;;23.77;9.02;;;;;;;0.57;98.12;101700.75;5136964;27;20234;-50
2021/03/04 01:51:15;;;;;;;23.30;9.55;;;;;;;0.47;98.12;101698.94;5138512;27;20199;-50
2021/03/04 01:53:42;;;;;;;17.42;7.82;;;;;;;0.39;98.17;101699.09;5137081;27;20249;-48
2021/03/04 01:56:09;;;;;;;19.15;8.95;;;;;;;0.43;98.18;101701.94;5138297;27;20209;-48
2021/03/04 01:58:36;;;;;;;24.52;8.85;;;;;;;0.34;98.25;101705.38;5137286;27;20231;-48
2021/03/04 02:01:03;;;;;;;21.23;8.73;;;;;;;0.38;98.50;101704.94;5138508;27;20237;-48
2021/03/04 02:03:30;;;;;;;26.77;10.02;;;;;;;0.44;98.21;101701.16;5125206;27;20644;-51
2021/03/04 02:05:58;;;;;;;23.83;9.38;;;;;;;0.36;97.78;101697.91;5138178;27;20516;-52
2021/03/04 02:08:28;;;;;;;22.10;9.82;;;;;;;0.43;98.10;101692.69;5137171;27;20231;-52
2021/03/04 02:10:59;;;;;;;21.40;8.63;;;;;;;0.37;98.01;101692.94;5139002;27;20202;-52
2021/03/04 02:13:29;;;;;;;15.57;7.00;;;;;;;0.45;97.83;101690.28;5137632;27;20237;-51
2021/03/04 02:16:00;;;;;;;20.90;8.25;;;;;;;0.51;97.59;101694.31;5138540;27;20285;-51
2021/03/04 02:18:29;;;;;;;21.73;9.45;;;;;;;0.58;97.46;101687.28;5137302;27;20713;-49
2021/03/04 02:21:12;;;;;;;15.45;7.85;;;;;;;0.49;96.96;101687.28;5139087;27;20523;-51
2021/03/04 02:23:52;;;;;;;18.25;7.50;;;;;;;0.44;97.04;101680.84;5137526;27;20242;-53
2021/03/04 02:26:36;;;;;;;20.30;8.57;;;;;;;0.61;97.18;101673.22;5138553;27;20203;-50
2021/03/04 02:29:04;;;;;;;21.52;8.45;;;;;;;0.67;97.10;101667.88;5137280;27;20329;-53
2021/03/04 02:31:32;;;;;;;19.85;7.35;;;;;;;0.63;96.75;101673.41;5138948;27;20205;-49
2021/03/04 02:34:01;;;;;;;20.52;8.15;;;;;;;0.74;96.64;101664.25;5138855;27;20337;-49
2021/03/04 02:36:28;;;;;;;23.38;7.90;;;;;;;0.61;96.59;101663.06;5137835;27;20644;-52
2021/03/04 02:38:56;;;;;;;17.33;9.00;;;;;;;0.61;96.57;101658.00;5135458;27;20662;-50
2021/03/04 02:41:22;;;;;;;19.00;8.02;;;;;;;0.66;96.89;101654.25;5137831;27;20216;-53
2021/03/04 02:43:49;;;;;;;16.52;7.50;;;;;;;0.70;96.45;101646.91;5136232;27;20246;-48
2021/03/04 02:46:17;;;;;;;20.50;9.57;;;;;;;0.72;96.33;101655.59;5137685;27;20546;-51
2021/03/04 02:48:43;;;;;;;22.27;8.98;;;;;;;0.71;96.33;101644.53;5136300;27;20713;-48
2021/03/04 02:51:10;;;;;;;20.25;9.27;;;;;;;0.70;95.96;101641.84;5137746;27;20238;-51
2021/03/04 02:53:37;;;;;;;20.25;8.65;;;;;;;0.76;95.84;101639.88;5133632;27;20313;-49
2021/03/04 02:56:05;;;;;;;18.25;6.95;;;;;;;0.64;95.44;101640.53;5158521;27;20220;-51
2021/03/04 02:58:32;;;;;;;16.58;7.28;;;;;;;0.72;95.42;101635.28;5156702;27;20269;-49
2021/03/04 03:01:00;;;;;;;18.02;8.15;;;;;;;0.80;95.22;101634.34;5158974;27;20557;-51
2021/03/04 03:03:28;;;;;;;19.00;8.77;;;;;;;0.90;95.04;101637.03;5136300;27;20231;-48
2021/03/04 03:05:56;;;;;;;21.70;9.73;;;;;;;1.00;95.13;101622.63;5139799;27;20229;-47
2021/03/04 03:08:23;;;;;;;20.85;8.32;;;;;;;0.89;94.58;101620.00;5157108;27;20316;-50
2021/03/04 03:10:52;;;;;;;21.95;9.85;;;;;;;0.88;94.84;101617.31;5158435;27;20209;-50
2021/03/04 03:13:19;;;;;;;26.00;9.73;;;;;;;0.90;94.85;101614.16;5157143;27;20253;-52
2021/03/04 03:15:46;;;;;;;21.77;8.98;;;;;;;0.96;94.50;101610.41;5157323;27;20217;-49
2021/03/04 03:18:13;;;;;;;19.05;9.10;;;;;;;0.99;94.07;101608.16;5156482;27;20234;-51
2021/03/04 03:20:41;;;;;;;19.45;7.35;;;;;;;1.00;93.94;101609.94;5158326;27;20198;-51
2021/03/04 03:23:08;;;;;;;17.15;7.80;;;;;;;0.98;93.79;101607.28;5156534;27;20236;-51
2021/03/04 03:25:34;;;;;;;16.20;8.52;;;;;;;0.99;93.63;101605.59;5157550;27;20201;-53
2021/03/04 03:28:01;;;;;;;20.40;8.80;;;;;;;1.07;94.15;101599.59;5157043;27;20525;-50
2021/03/04 03:30:30;;;;;;;15.23;6.38;;;;;;;1.02;93.38;101595.75;5157995;27;20603;-52
2021/03/04 03:32:58;;;;;;;11.38;6.00;;;;;;;1.00;93.37;101597.22;5156536;27;20234;-52
2021/03/04 03:35:26;;;;;;;14.00;6.05;;;;;;;0.98;93.24;101594.56;5145187;27;20507;-51
2021/03/04 03:37:55;;;;;;;27.80;7.50;;;;;;;1.08;93.17;101596.31;5135328;27;20242;-50
2021/03/04 03:40:22;;;;;;;14.90;6.78;;;;;;;1.06;92.64;101590.16;5136806;27;20187;-52
2021/03/04 03:42:50;;;;;;;13.98;7.03;;;;;;;1.11;92.14;101585.50;5135372;27;20233;-51
2021/03/04 03:45:19;;;;;;;12.55;5.93;;;;;;;1.06;91.98;101577.47;5136510;27;20235;-52
2021/03/04 03:47:46;;;;;;;13.55;6.78;;;;;;;1.07;91.88;101581.78;5135237;27;20316;-48
2021/03/04 03:50:23;;;;;;;12.43;6.15;;;;;;;1.14;91.44;101575.63;5123002;27;20205;-49
2021/03/04 03:52:51;;;;;;;12.65;6.07;;;;;;;1.04;91.20;101581.53;5135289;27;20234;-48
2021/03/04 03:55:18;;;;;;;9.80;5.72;;;;;;;1.07;91.31;101582.69;5141783;27;20292;-50
2021/03/04 03:57:45;;;;;;;15.73;5.83;;;;;;;1.05;91.22;101580.75;5155901;27;20253;-50
2021/03/04 04:00:13;;;;;;;14.43;6.30;;;;;;;1.06;90.78;101582.53;5156349;27;20439;-51
2021/03/04 04:02:40;;;;;;;10.23;6.20;;;;;;;1.13;90.50;101584.91;5149199;27;20539;-48
2021/03/04 04:05:08;;;;;;;11.10;5.50;;;;;;;1.13;90.29;101579.81;5136277;27;20546;-47
2021/03/04 04:07:34;;;;;;;14.95;6.45;;;;;;;1.20;90.31;101577.13;5134686;27;20480;-53
2021/03/04 04:10:02;;;;;;;11.63;5.45;;;;;;;1.26;90.05;101575.88;5136463;27;20313;-48
2021/03/04 04:12:29;;;;;;;11.95;5.88;;;;;;;1.24;90.35;101573.22;5134589;27;20279;-53
2021/03/04 04:14:57;;;;;;;11.43;5.57;;;;;;;1.17;90.35;101570.81;5135781;27;20655;-51
2021/03/04 04:17:23;;;;;;;12.67;5.50;;;;;;;1.17;89.98;101571.72;5134749;27;20234;-49
2021/03/04 04:19:53;;;;;;;10.07;4.63;;;;;;;1.18;90.27;101570.97;5136452;27;20483;-55
2021/03/04 04:22:20;;;;;;;9.82;5.03;;;;;;;1.24;90.24;101563.03;5134864;27;20588;-49
2021/03/04 04:24:47;;;;;;;11.32;4.25;;;;;;;1.23;90.08;101560.34;5135708;27;20226;-52
2021/03/04 04:27:13;;;;;;;12.23;5.70;;;;;;;1.33;90.02;101553.69;5136079;27;20285;-52
2021/03/04 04:29:41;;;;;;;12.18;4.70;;;;;;;1.32;89.39;101548.47;5134778;27;20234;-52
2021/03/04 04:32:08;;;;;;;7.40;4.20;;;;;;;1.21;89.55;101545.84;5136099;27;20210;-49
2021/03/04 04:34:35;;;;;;;10.07;5.22;;;;;;;1.17;88.74;101545.41;5134120;27;20480;-53
2021/03/04 04:37:01;;;;;;;10.50;5.50;;;;;;;1.29;89.28;101535.50;5149814;27;20203;-52
2021/03/04 04:39:28;;;;;;;10.18;5.03;;;;;;;1.24;88.52;101535.06;5154781;27;20241;-49
2021/03/04 04:41:55;;;;;;;13.53;5.70;;;;;;;1.32;89.18;101525.59;5148647;27;20208;-53
2021/03/04 04:44:22;;;;;;;10.32;5.80;;;;;;;1.26;88.46;101525.03;5154618;27;20904;-50
2021/03/04 04:46:49;;;;;;;9.98;5.35;;;;;;;1.32;88.38;101523.03;5156059;27;20215;-50
2021/03/04 04:49:16;;;;;;;13.20;5.00;;;;;;;1.38;88.11;101526.16;5154956;27;20647;-52
2021/03/04 04:51:43;;;;;;;10.80;5.90;;;;;;;1.34;88.02;101524.09;5156208;27;20437;-50
2021/03/04 04:54:10;;;;;;;10.67;5.80;;;;;;;1.48;88.08;101522.78;5154320;27;20462;-50
2021/03/04 04:56:36;;;;;;;13.87;5.07;;;;;;;1.38;87.64;101515.97;5155632;27;20972;-54
2021/03/04 04:59:03;;;;;;;14.50;4.97;;;;;;;1.34;87.60;101519.00;5154943;27;20461;-49
2021/03/04 05:01:29;;;;;;;13.80;5.22;;;;;;;1.31;87.76;101513.63;5158284;27;20459;-53
2021/03/04 05:03:57;;;;;;;8.82;4.70;;;;;;;1.50;87.23;101510.22;5158677;27;20696;-49
2021/03/04 05:06:24;;;;;;;9.40;5.00;;;;;;;1.42;87.22;101507.88;5160463;27;20218;-48
2021/03/04 05:08:50;;;;;;;12.27;5.40;;;;;;;1.45;87.13;101509.81;5146004;27;20282;-49
2021/03/04 05:11:17;;;;;;;12.03;5.70;;;;;;;1.46;87.21;101514.13;5160275;27;20481;-50
2021/03/04 05:13:44;;;;;;;10.23;5.20;;;;;;;1.46;87.41;101509.94;5158892;27;20479;-49
2021/03/04 05:16:11;;;;;;;11.20;5.97;;;;;;;1.68;87.82;101505.88;5144856;27;20542;-49
2021/03/04 05:18:38;;;;;;;10.80;5.50;;;;;;;1.47;87.55;101504.09;5138245;27;20529;-50
2021/03/04 05:21:06;;;;;;;9.40;5.50;;;;;;;1.52;87.58;101501.97;5139628;27;20485;-53
2021/03/04 05:23:33;;;;;;;9.83;5.00;;;;;;;1.49;86.80;101499.16;5138075;27;20234;-51
2021/03/04 05:25:59;;;;;;;8.67;4.50;;;;;;;1.54;86.80;101495.34;5139437;27;20782;-51
2021/03/04 05:28:26;;;;;;;9.07;4.70;;;;;;;1.50;86.63;101489.88;5137956;27;20482;-51
2021/03/04 05:30:53;;;;;;;18.40;4.47;;;;;;;1.49;86.31;101494.06;5139542;27;20466;-54
2021/03/04 05:33:20;;;;;;;12.47;4.63;;;;;;;1.46;86.54;101492.16;5138038;27;20322;-55
2021/03/04 05:35:47;;;;;;;14.05;4.18;;;;;;;1.54;86.37;101491.94;5157372;27;20455;-52
2021/03/04 05:38:15;;;;;;;11.70;5.40;;;;;;;1.49;86.38;101496.63;5158094;27;20240;-49
2021/03/04 05:40:42;;;;;;;17.27;6.00;;;;;;;1.47;86.16;101491.38;5159890;27;20459;-49
2021/03/04 05:43:10;;;;;;;9.32;4.88;;;;;;;1.50;85.91;101487.31;5134131;27;20897;-51
2021/03/04 05:45:38;;;;;;;13.50;4.30;;;;;;;1.60;85.78;101483.19;5153312;27;20620;-49
2021/03/04 05:48:06;;;;;;;7.20;3.75;;;;;;;1.54;85.06;101486.84;5144250;27;20848;-48
2021/03/04 05:50:33;;;;;;;13.60;3.90;;;;;;;1.55;85.11;101483.53;5159258;27;20206;-53
2021/03/04 05:53:05;;;;;;;7.77;4.33;;;;;;;1.60;85.28;101482.31;5146169;27;20582;-49
2021/03/04 05:55:33;;;;;;;8.63;3.77;;;;;;;1.68;85.25;101472.78;5158921;27;20886;-51
2021/03/04 05:58:00;;;;;;;8.00;3.90;;;;;;;1.69;85.29;101472.94;5157609;27;20449;-50
2021/03/04 06:00:27;;;;;;;14.30;4.85;;;;;;;1.75;85.80;101468.41;5158854;27;20478;-51
2021/03/04 06:02:54;;;;;;;12.05;4.65;;;;;;;1.66;85.70;101477.78;5150264;27;20230;-49
2021/03/04 06:05:20;;;;;;;11.03;4.73;;;;;;;1.66;85.43;101480.31;5138300;27;20231;-53
2021/03/04 06:07:47;;;;;;;9.90;4.97;;;;;;;1.72;85.30;101477.41;5137102;27;20461;-54
2021/03/04 06:10:15;;;;;;;10.50;5.10;;;;;;;1.71;85.22;101474.00;5138701;27;20548;-51
2021/03/04 06:12:43;;;;;;;9.73;5.40;;;;;;;1.72;85.66;101475.78;5135646;27;20467;-51
2021/03/04 06:15:11;;;;;;;8.50;4.73;;;;;;;1.72;85.30;101470.69;5138233;27;20452;-54
2021/03/04 06:17:38;;;;;;;9.00;4.43;;;;;;;1.87;85.34;101465.16;5136696;27;20450;-49
2021/03/04 06:20:07;;;;;;;8.90;4.20;;;;;;;1.90;85.06;101465.44;5138506;27;20745;-53
2021/03/04 06:22:35;;;;;;;8.80;4.27;;;;;;;1.83;84.87;101464.00;5154625;27;20471;-51
2021/03/04 06:25:06;;;;;;;10.30;3.20;;;;;;;1.78;84.78;101459.28;5158649;27;20467;-49
2021/03/04 06:27:34;;;;;;;9.57;4.90;;;;;;;1.88;85.50;101461.84;5146167;27;20481;-51
2021/03/04 06:30:04;;;;;;;14.37;4.40;;;;;;;1.85;84.90;101459.94;5157895;27;20497;-51
2021/03/04 06:32:31;;;;;;;8.40;4.17;;;;;;;1.87;84.97;101455.88;5145898;27;20805;-50
2021/03/04 06:35:08;;;;;;;7.40;3.50;;;;;;;1.88;84.61;101455.13;5158339;27;20478;-49
2021/03/04 06:37:36;;;;;;;10.60;4.40;;;;;;;1.91;84.64;101451.97;5156914;27;20487;-49
2021/03/04 06:40:04;;;;;;;9.97;4.37;;;;;;;1.91;84.28;101454.50;5158391;27;20443;-53
2021/03/04 06:42:39;;;;;;;6.90;3.67;;;;;;;1.91;84.32;101453.59;5145198;27;20513;-52
2021/03/04 06:45:08;;;;;;;9.93;3.70;;;;;;;1.97;83.91;101452.50;5157916;27;20464;-51
2021/03/04 06:47:35;;;;;;;15.63;3.50;;;;;;;2.04;84.00;101456.44;5140663;27;20797;-50
2021/03/04 06:50:02;;;;;;;9.13;4.00;;;;;;;2.02;83.83;101458.84;5136856;27;20471;-53
2021/03/04 06:52:44;;;;;;;9.87;4.70;;;;;;;2.05;83.75;101455.69;5139078;27;20445;-52
2021/03/04 06:55:12;;;;;;;7.20;4.00;;;;;;;2.05;83.81;101457.34;5153137;27;20438;-51
2021/03/04 06:57:39;;;;;;;11.17;4.60;;;;;;;2.01;83.87;101454.53;5143098;27;20490;-51
2021/03/04 07:00:17;;;;;;;33.20;13.83;;;;;;;2.26;85.15;101456.66;5145348;27;20465;-55
2021/03/04 07:02:51;;;;;;;8.03;4.10;;;;;;;2.16;83.99;101460.06;5117408;27;20482;-52
2021/03/04 07:05:17;;;;;;;30.80;11.90;;;;;;;2.27;84.50;101455.91;5137168;27;20802;-55
2021/03/04 07:07:46;;;;;;;17.20;7.97;;;;;;;2.32;83.63;101453.78;5134860;27;20775;-54
2021/03/04 07:10:14;;;;;;;6.60;3.47;;;;;;;2.10;83.53;101451.91;5137551;27;20437;-52
2021/03/04 07:12:42;;;;;;;9.60;3.70;;;;;;;2.09;83.69;101454.31;5119565;27;21282;-50
2021/03/04 07:15:11;;;;;;;19.60;7.33;;;;;;;2.27;84.30;101455.91;5135958;27;20773;-51
2021/03/04 07:17:38;;;;;;;9.57;3.60;;;;;;;2.23;83.52;101458.06;5139018;27;21190;-52
2021/03/04 07:20:07;;;;;;;16.17;4.80;;;;;;;2.28;83.71;101457.72;5142822;27;20463;-49
2021/03/04 07:22:33;;;;;;;9.97;4.47;;;;;;;2.42;84.26;101458.00;5139052;27;20534;-52
2021/03/04 07:25:00;;;;;;;7.50;3.20;;;;;;;2.41;83.38;101461.31;5152014;27;20434;-51
2021/03/04 07:27:27;;;;;;;10.97;3.53;;;;;;;2.34;82.70;101449.69;5150377;27;20513;-54
2021/03/04 07:29:54;;;;;;;12.83;5.13;;;;;;;2.39;83.00;101451.00;5152877;27;20610;-52
2021/03/04 07:32:26;;;;;;;9.90;3.57;;;;;;;2.47;83.23;101449.13;5131527;27;20453;-50
2021/03/04 07:34:54;;;;;;;14.73;5.60;;;;;;;2.53;83.63;101449.63;5153695;27;20480;-54
2021/03/04 07:37:28;;;;;;;13.33;5.83;;;;;;;2.46;82.91;101452.41;5143799;27;20477;-53
2021/03/04 07:39:59;;;;;;;10.40;4.10;;;;;;;2.39;82.87;101450.09;5154203;27;20489;-52
2021/03/04 07:42:26;;;;;;;10.20;3.63;;;;;;;2.35;83.27;101448.94;5137067;27;20426;-54
2021/03/04 07:44:54;;;;;;;10.20;3.67;;;;;;;2.35;83.47;101453.16;5134494;27;20570;-49
2021/03/04 07:47:26;;;;;;;14.30;4.57;;;;;;;2.43;83.20;101453.03;5146008;27;20505;-53
2021/03/04 07:49:53;;;;;;;8.97;3.60;;;;;;;2.40;83.42;101456.97;5149989;27;20487;-53
2021/03/04 07:52:21;;;;;;;8.47;3.80;;;;;;;2.40;83.13;101457.88;5143620;27;20478;-55
2021/03/04 07:54:49;;;;;;;7.43;3.40;;;;;;;2.49;83.33;101454.31;5153452;27;20470;-50
2021/03/04 07:57:17;;;;;;;14.13;4.33;;;;;;;2.41;83.29;101453.69;5154002;27;20474;-53
2021/03/04 07:59:53;;;;;;;7.20;3.50;;;;;;;2.47;83.42;101446.56;5144835;27;20471;-50
2021/03/04 08:02:25;;;;;;;9.60;5.07;;;;;;;2.48;83.84;101450.88;5150810;27;20555;-49
2021/03/04 08:05:05;;;;;;;13.50;3.63;;;;;;;2.55;83.15;101443.00;5136017;27;20447;-52
2021/03/04 08:07:31;;;;;;;14.90;4.50;;;;;;;2.67;83.20;101442.25;5134839;27;20454;-52
2021/03/04 08:10:06;;;;;;;13.90;3.90;;;;;;;2.54;82.71;101448.88;5136347;27;20439;-49
2021/03/04 08:12:46;;;;;;;20.90;4.80;;;;;;;2.67;82.72;101448.25;5134762;27;20453;-51
2021/03/04 08:15:14;;;;;;;9.70;4.50;;;;;;;2.75;83.11;101438.69;5136017;27;20454;-52
2021/03/04 08:17:44;;;;;;;12.50;4.10;;;;;;;2.72;83.08;101440.97;5134446;27;20447;-49
2021/03/04 08:20:13;;;;;;;16.70;4.50;;;;;;;2.68;82.40;101438.94;5136500;27;20434;-49
2021/03/04 08:22:44;;;;;;;8.87;3.13;;;;;;;2.69;82.75;101430.53;5149246;27;20557;-48
2021/03/04 08:25:13;;;;;;;9.40;3.20;;;;;;;2.68;82.87;101438.94;5150305;27;20470;-53
2021/03/04 08:27:41;;;;;;;8.10;3.57;;;;;;;2.76;82.39;101432.84;5151627;27;20529;-53
2021/03/04 08:30:09;;;;;;;19.23;5.50;;;;;;;2.74;82.57;101434.38;5153157;27;20444;-49
2021/03/04 08:32:36;;;;;;;9.00;3.63;;;;;;;2.67;82.98;101438.03;5139218;27;20437;-54
2021/03/04 08:35:15;;;;;;;9.97;3.47;;;;;;;2.72;82.60;101435.00;5153327;27;20481;-51
2021/03/04 08:37:42;;;;;;;12.40;3.20;;;;;;;2.69;82.75;101436.53;5146941;27;20453;-52
2021/03/04 08:40:09;;;;;;;13.17;4.80;;;;;;;2.75;82.90;101425.97;5154275;27;20448;-49
2021/03/04 08:42:36;;;;;;;7.50;3.20;;;;;;;2.72;82.64;101423.13;5151941;27;20464;-54
2021/03/04 08:45:03;;;;;;;13.33;4.30;;;;;;;2.77;82.84;101416.78;5153080;27;20755;-49
2021/03/04 08:47:30;;;;;;;12.57;3.97;;;;;;;2.81;82.76;101411.19;5150594;27;20575;-48
2021/03/04 08:49:58;;;;;;;8.07;3.33;;;;;;;2.83;83.27;101413.88;5153517;27;20454;-51
2021/03/04 08:52:27;;;;;;;7.13;3.23;;;;;;;2.84;82.76;101413.97;5152992;27;20549;-52
2021/03/04 08:54:55;;;;;;;8.87;3.63;;;;;;;2.96;82.53;101413.22;5155241;27;20477;-52
2021/03/04 08:57:23;;;;;;;15.03;3.67;;;;;;;2.91;82.77;101410.28;5153149;27;20464;-53
2021/03/04 09:00:06;;;;;;;7.40;3.33;;;;;;;2.97;82.54;101402.25;5150616;27;20458;-51
2021/03/04 09:02:33;;;;;;;8.87;3.73;;;;;;;3.00;82.40;101410.16;5154052;27;20470;-53
2021/03/04 09:05:00;;;;;;;22.07;8.03;;;;;;;3.08;82.71;101405.72;5138530;27;20455;-49
2021/03/04 09:07:30;;;;;;;7.37;3.00;;;;;;;3.09;82.24;101403.25;5134350;28;20749;-49
2021/03/04 09:10:01;;;;;;;9.10;3.50;;;;;;;3.20;82.51;101398.16;5135633;28;20482;-48
2021/03/04 09:12:28;;;;;;;7.30;4.10;;;;;;;3.18;82.54;101404.81;5134413;28;20438;-53
2021/03/04 09:14:56;;;;;;;10.70;3.43;;;;;;;3.16;82.21;101403.75;5134766;28;20523;-52
2021/03/04 09:17:22;;;;;;;8.20;3.90;;;;;;;3.26;82.19;101401.22;5134340;28;20447;-53
2021/03/04 09:19:53;;;;;;;12.90;4.00;;;;;;;3.15;82.30;101399.44;5135361;28;20476;-49
2021/03/04 09:22:20;;;;;;;6.70;3.07;;;;;;;3.18;81.78;101392.06;5149916;27;20463;-51
2021/03/04 09:24:49;;;;;;;9.60;3.80;;;;;;;3.22;82.08;101388.97;5149638;27;20450;-52
2021/03/04 09:27:19;;;;;;;13.67;4.97;;;;;;;3.31;82.51;101392.28;5149342;27;20543;-52
2021/03/04 09:29:46;;;;;;;14.77;3.30;;;;;;;3.36;81.68;101383.34;5150543;27;20547;-52
2021/03/04 09:32:13;;;;;;;9.97;3.73;;;;;;;3.48;82.05;101392.72;5148683;27;20467;-51
2021/03/04 09:34:41;;;;;;;7.33;3.53;;;;;;;3.33;81.56;101382.22;5142654;27;20442;-49
2021/03/04 09:37:09;;;;;;;8.43;3.97;;;;;;;3.24;81.84;101384.91;5148388;27;20441;-49
2021/03/04 09:39:41;;;;;;;9.33;4.10;;;;;;;3.33;82.04;101387.31;5134546;27;20574;-50
2021/03/04 09:42:09;;;;;;;6.77;3.27;;;;;;;3.33;82.20;101388.19;5150244;27;20447;-55
2021/03/04 09:44:51;;;;;;;12.43;3.80;;;;;;;3.45;81.62;101400.16;5131521;27;20940;-50
2021/03/04 09:47:19;;;;;;;5.70;2.70;;;;;;;3.52;81.64;101394.78;5152250;27;20461;-53
2021/03/04 09:49:46;;;;;;;10.13;2.83;;;;;;;3.49;81.76;101392.00;5156553;27;20977;-53
2021/03/04 09:52:18;;;;;;;8.13;3.70;;;;;;;3.36;81.83;101391.00;5154655;27;20440;-51
2021/03/04 09:55:04;;;;;;;7.23;3.50;;;;;;;3.65;81.87;101391.56;5146895;27;20506;-52
2021/03/04 09:57:31;;;;;;;12.13;4.13;;;;;;;3.71;81.03;101386.94;5150997;27;20465;-50
2021/03/04 09:59:59;;;;;;;9.50;2.60;;;;;;;3.68;80.99;101396.03;5138297;27;20931;-55
2021/03/04 10:02:27;;;;;;;7.50;3.40;;;;;;;3.57;81.10;101390.94;5117012;27;20434;-49
2021/03/04 10:04:55;;;;;;;12.93;4.23;;;;;;;3.71;81.62;101388.59;5130070;27;20494;-53
2021/03/04 10:07:27;;;;;;;11.73;4.50;;;;;;;3.73;81.64;101381.94;5118083;27;20473;-52
2021/03/04 10:09:54;;;;;;;17.47;4.10;;;;;;;3.75;81.61;101377.88;5121870;27;20765;-49
2021/03/04 10:12:22;;;;;;;9.17;3.37;;;;;;;3.78;80.77;101383.19;5129132;27;20439;-54
2021/03/04 10:14:53;;;;;;;9.00;4.43;;;;;;;3.87;80.46;101378.84;5119590;27;20481;-49
2021/03/04 10:17:20;;;;;;;16.83;3.97;;;;;;;3.80;80.14;101376.59;5124247;27;20482;-51
2021/03/04 10:19:47;;;;;;;23.60;4.53;;;;;;;3.75;80.09;101380.44;5121678;27;20516;-49
2021/03/04 10:22:14;;;;;;;13.67;3.40;;;;;;;3.80;79.66;101374.03;5129000;27;20459;-51
2021/03/04 10:24:42;;;;;;;13.20;5.00;;;;;;;3.76;79.83;101379.66;5119579;27;20472;-53
2021/03/04 10:27:09;;;;;;;8.10;3.03;;;;;;;3.76;79.85;101380.53;5134018;27;20910;-55
2021/03/04 10:29:37;;;;;;;7.00;3.27;;;;;;;3.73;79.75;101389.59;5132410;27;20910;-55
2021/03/04 10:32:06;;;;;;;12.17;3.90;;;;;;;3.90;79.79;101389.28;5129730;27;20488;-54
2021/03/04 10:34:33;;;;;;;9.67;3.20;;;;;;;3.84;79.53;101395.59;5129420;27;20489;-56
2021/03/04 10:37:00;;;;;;;17.20;3.83;;;;;;;3.88;79.61;101390.84;5122745;27;20885;-51
2021/03/04 10:39:28;;;;;;;15.33;5.30;;;;;;;4.00;79.41;101393.44;5129265;27;20558;-53
2021/03/04 10:41:55;;;;;;;12.57;3.80;;;;;;;4.04;78.76;101387.81;5129869;27;20476;-49
2021/03/04 10:44:22;;;;;;;9.67;4.10;;;;;;;4.01;78.94;101386.69;5131232;27;20482;-50
2021/03/04 10:46:50;;;;;;;7.70;4.00;;;;;;;3.97;79.07;101382.09;5132216;27;20429;-53
2021/03/04 10:49:18;;;;;;;9.33;3.30;;;;;;;4.07;78.42;101376.06;5132738;27;20827;-49
2021/03/04 10:51:45;;;;;;;13.03;3.10;;;;;;;3.90;78.24;101389.28;5127286;27;20903;-50
2021/03/04 10:54:12;;;;;;;13.63;4.03;;;;;;;3.95;77.75;101387.09;5129024;27;20831;-50
2021/03/04 10:56:38;;;;;;;11.30;3.30;;;;;;;3.97;77.53;101385.56;5134329;27;20543;-51
2021/03/04 10:59:05;;;;;;;11.43;3.13;;;;;;;4.03;77.13;101388.59;5133386;27;20462;-54
2021/03/04 11:01:33;;;;;;;15.87;4.57;;;;;;;4.18;76.80;101390.56;5138142;27;20428;-51
2021/03/04 11:04:01;;;;;;;17.83;4.30;;;;;;;4.34;75.92;101397.75;5131215;27;20521;-50
2021/03/04 11:06:28;;;;;;;15.87;3.53;;;;;;;4.41;75.78;101399.13;5137978;27;20729;-48
2021/03/04 11:08:55;;;;;;;16.07;2.90;;;;;;;4.36;74.78;101398.75;5127027;27;20477;-50
2021/03/04 11:11:22;;;;;;;13.13;4.53;;;;;;;4.67;75.15;101397.66;5122900;27;20980;-53
2021/03/04 11:13:48;;;;;;;15.33;4.17;;;;;;;4.56;74.10;101389.19;5137335;27;20766;-48
2021/03/04 11:16:16;;;;;;;13.40;4.00;;;;;;;4.64;74.60;101393.22;5131331;27;20461;-48
2021/03/04 11:18:43;;;;;;;9.33;3.40;;;;;;;4.52;74.00;101387.16;5132459;27;20480;-51
2021/03/04 11:21:09;;;;;;;16.27;4.30;;;;;;;4.77;74.85;101381.34;5135457;27;20905;-49
2021/03/04 11:23:37;;;;;;;13.20;3.63;;;;;;;4.54;73.85;101390.72;5133544;27;20788;-48
2021/03/04 11:26:03;;;;;;;14.60;4.70;;;;;;;4.68;73.38;101394.34;5134293;27;20551;-47
2021/03/04 11:28:30;;;;;;;10.80;3.83;;;;;;;4.58;73.22;101397.84;5121243;27;20459;-48
2021/03/04 11:30:57;;;;;;;18.33;3.67;;;;;;;4.67;74.28;101393.44;5133330;27;20494;-49